sensor_id;sensor_type;location;lat;lon;timestamp;temperature;humidity
5457;DHT22;2751;49.802;9.944;2023-06-22T00:00:52;21.70;99.90
5457;DHT22;2751;49.802;9.944;2023-06-22T00:03:21;21.70;99.90
5457;DHT22;2751;49.802;9.944;2023-06-22T00:05:48;21.70;99.90
5457;DHT22;2751;49.802;9.944;2023-06-22T00:08:17;21.60;99.90
5457;DHT22;2751;49.802;9.944;2023-06-22T00:10:44;21.50;99.90
5457;DHT22;2751;49.802;9.944;2023-06-22T00:13:12;21.50;99.90
5457;DHT22;2751;49.802;9.944;2023-06-22T00:15:41;21.50;99.90
5457;DHT22;2751;49.802;9.944;2023-06-22T00:18:09;21.50;99.90
5457;DHT22;2751;49.802;9.944;2023-06-22T00:20:36;21.50;99.90
5457;DHT22;2751;49.802;9.944;2023-06-22T00:23:05;21.50;99.90
5457;DHT22;2751;49.802;9.944;2023-06-22T00:25:34;21.50;99.90
5457;DHT22;2751;49.802;9.944;2023-06-22T00:28:01;21.50;99.90
5457;DHT22;2751;49.802;9.944;2023-06-22T00:30:28;21.50;99.90
5457;DHT22;2751;49.802;9.944;2023-06-22T00:32:56;21.50;99.90
5457;DHT22;2751;49.802;9.944;2023-06-22T00:35:24;21.50;99.90
5457;DHT22;2751;49.802;9.944;2023-06-22T00:37:54;21.40;99.90
5457;DHT22;2751;49.802;9.944;2023-06-22T00:40:26;21.30;99.90
5457;DHT22;2751;49.802;9.944;2023-06-22T00:42:53;21.30;99.90
5457;DHT22;2751;49.802;9.944;2023-06-22T00:45:20;21.20;99.90
5457;DHT22;2751;49.802;9.944;2023-06-22T00:47:48;21.20;99.90
5457;DHT22;2751;49.802;9.944;2023-06-22T00:50:19;21.10;99.90
5457;DHT22;2751;49.802;9.944;2023-06-22T00:52:48;21.10;99.90
5457;DHT22;2751;49.802;9.944;2023-06-22T00:55:18;21.00;99.90
5457;DHT22;2751;49.802;9.944;2023-06-22T00:57:45;21.00;99.90
5457;DHT22;2751;49.802;9.944;2023-06-22T01:00:13;21.00;99.90
5457;DHT22;2751;49.802;9.944;2023-06-22T01:02:42;20.90;99.90
5457;DHT22;2751;49.802;9.944;2023-06-22T01:05:11;20.90;99.90
5457;DHT22;2751;49.802;9.944;2023-06-22T01:07:45;20.80;99.90
5457;DHT22;2751;49.802;9.944;2023-06-22T01:10:18;20.80;99.90
5457;DHT22;2751;49.802;9.944;2023-06-22T01:12:50;20.80;99.90
5457;DHT22;2751;49.802;9.944;2023-06-22T01:15:23;20.80;99.90
5457;DHT22;2751;49.802;9.944;2023-06-22T01:17:52;20.80;99.90
5457;DHT22;2751;49.802;9.944;2023-06-22T01:20:20;20.70;99.90
5457;DHT22;2751;49.802;9.944;2023-06-22T01:23:07;20.70;99.90
5457;DHT22;2751;49.802;9.944;2023-06-22T01:25:43;20.70;99.90
5457;DHT22;2751;49.802;9.944;2023-06-22T01:28:23;20.70;99.90
5457;DHT22;2751;49.802;9.944;2023-06-22T01:30:52;20.80;99.90
5457;DHT22;2751;49.802;9.944;2023-06-22T01:33:29;20.80;99.90
5457;DHT22;2751;49.802;9.944;2023-06-22T01:35:58;20.80;99.90
5457;DHT22;2751;49.802;9.944;2023-06-22T01:38:27;20.80;99.90
5457;DHT22;2751;49.802;9.944;2023-06-22T01:40:55;20.80;99.90
5457;DHT22;2751;49.802;9.944;2023-06-22T01:43:24;20.80;99.90
5457;DHT22;2751;49.802;9.944;2023-06-22T01:45:53;20.80;99.90
5457;DHT22;2751;49.802;9.944;2023-06-22T01:48:21;20.90;99.90
5457;DHT22;2751;49.802;9.944;2023-06-22T01:50:49;20.90;99.90
5457;DHT22;2751;49.802;9.944;2023-06-22T01:53:16;20.90;99.90
5457;DHT22;2751;49.802;9.944;2023-06-22T01:55:43;20.90;99.90
5457;DHT22;2751;49.802;9.944;2023-06-22T01:58:09;21.00;99.90
5457;DHT22;2751;49.802;9.944;2023-06-22T02:00:38;21.10;99.90
5457;DHT22;2751;49.802;9.944;2023-06-22T02:03:11;21.10;99.90
5457;DHT22;2751;49.802;9.944;2023-06-22T02:05:47;21.10;99.90
5457;DHT22;2751;49.802;9.944;2023-06-22T02:08:19;21.10;99.90
5457;DHT22;2751;49.802;9.944;2023-06-22T02:10:47;21.10;99.90
5457;DHT22;2751;49.802;9.944;2023-06-22T02:13:15;21.10;99.90
5457;DHT22;2751;49.802;9.944;2023-06-22T02:15:42;21.00;99.90
5457;DHT22;2751;49.802;9.944;2023-06-22T02:18:11;20.90;99.90
5457;DHT22;2751;49.802;9.944;2023-06-22T02:20:38;20.70;99.90
5457;DHT22;2751;49.802;9.944;2023-06-22T02:23:05;20.70;99.90
5457;DHT22;2751;49.802;9.944;2023-06-22T02:25:34;20.50;99.90
5457;DHT22;2751;49.802;9.944;2023-06-22T02:28:01;20.50;99.90
5457;DHT22;2751;49.802;9.944;2023-06-22T02:30:28;20.50;99.90
5457;DHT22;2751;49.802;9.944;2023-06-22T02:32:55;20.40;99.90
5457;DHT22;2751;49.802;9.944;2023-06-22T02:35:26;20.40;99.90
5457;DHT22;2751;49.802;9.944;2023-06-22T02:37:57;20.30;99.90
5457;DHT22;2751;49.802;9.944;2023-06-22T02:40:25;20.20;99.90
5457;DHT22;2751;49.802;9.944;2023-06-22T02:42:52;20.20;99.90
5457;DHT22;2751;49.802;9.944;2023-06-22T02:45:19;20.10;99.90
5457;DHT22;2751;49.802;9.944;2023-06-22T02:47:46;20.00;99.90
5457;DHT22;2751;49.802;9.944;2023-06-22T02:50:14;20.00;99.90
5457;DHT22;2751;49.802;9.944;2023-06-22T02:52:42;20.00;99.90
5457;DHT22;2751;49.802;9.944;2023-06-22T02:55:09;20.00;99.90
5457;DHT22;2751;49.802;9.944;2023-06-22T02:57:36;19.90;99.90
5457;DHT22;2751;49.802;9.944;2023-06-22T03:00:04;19.90;99.90
5457;DHT22;2751;49.802;9.944;2023-06-22T03:02:42;19.90;99.90
5457;DHT22;2751;49.802;9.944;2023-06-22T03:05:09;19.90;99.90
5457;DHT22;2751;49.802;9.944;2023-06-22T03:07:39;19.90;99.90
5457;DHT22;2751;49.802;9.944;2023-06-22T03:10:08;19.90;99.90
5457;DHT22;2751;49.802;9.944;2023-06-22T03:12:36;20.00;99.90
5457;DHT22;2751;49.802;9.944;2023-06-22T03:15:05;20.00;99.90
5457;DHT22;2751;49.802;9.944;2023-06-22T03:17:31;20.00;99.90
5457;DHT22;2751;49.802;9.944;2023-06-22T03:19:58;20.00;99.90
5457;DHT22;2751;49.802;9.944;2023-06-22T03:22:25;20.10;99.90
5457;DHT22;2751;49.802;9.944;2023-06-22T03:24:52;20.10;99.90
5457;DHT22;2751;49.802;9.944;2023-06-22T03:27:20;20.20;99.90
5457;DHT22;2751;49.802;9.944;2023-06-22T03:29:47;19.90;99.90
5457;DHT22;2751;49.802;9.944;2023-06-22T03:32:14;20.20;99.90
5457;DHT22;2751;49.802;9.944;2023-06-22T03:34:41;20.30;99.90
5457;DHT22;2751;49.802;9.944;2023-06-22T03:37:12;20.30;99.90
5457;DHT22;2751;49.802;9.944;2023-06-22T03:39:39;20.30;99.90
5457;DHT22;2751;49.802;9.944;2023-06-22T03:42:06;20.30;99.90
5457;DHT22;2751;49.802;9.944;2023-06-22T03:44:35;20.30;99.90
5457;DHT22;2751;49.802;9.944;2023-06-22T03:47:02;20.30;99.90
5457;DHT22;2751;49.802;9.944;2023-06-22T03:49:29;20.40;99.90
5457;DHT22;2751;49.802;9.944;2023-06-22T03:51:56;20.50;99.90
5457;DHT22;2751;49.802;9.944;2023-06-22T03:54:23;20.50;99.90
5457;DHT22;2751;49.802;9.944;2023-06-22T03:56:50;20.60;99.90
5457;DHT22;2751;49.802;9.944;2023-06-22T03:59:18;20.60;99.90
5457;DHT22;2751;49.802;9.944;2023-06-22T04:01:46;20.60;99.90
5457;DHT22;2751;49.802;9.944;2023-06-22T04:04:13;20.60;99.90
5457;DHT22;2751;49.802;9.944;2023-06-22T04:06:40;20.50;99.90
5457;DHT22;2751;49.802;9.944;2023-06-22T04:09:06;20.50;99.90
5457;DHT22;2751;49.802;9.944;2023-06-22T04:11:33;20.60;99.90
5457;DHT22;2751;49.802;9.944;2023-06-22T04:14:00;20.60;99.90
5457;DHT22;2751;49.802;9.944;2023-06-22T04:16:27;20.60;99.90
5457;DHT22;2751;49.802;9.944;2023-06-22T04:18:55;20.60;99.90
5457;DHT22;2751;49.802;9.944;2023-06-22T04:21:22;20.70;99.90
5457;DHT22;2751;49.802;9.944;2023-06-22T04:23:49;20.80;99.90
5457;DHT22;2751;49.802;9.944;2023-06-22T04:26:16;20.80;99.90
5457;DHT22;2751;49.802;9.944;2023-06-22T04:28:42;20.90;99.90
5457;DHT22;2751;49.802;9.944;2023-06-22T04:31:17;20.90;99.90
5457;DHT22;2751;49.802;9.944;2023-06-22T04:33:43;20.90;99.90
5457;DHT22;2751;49.802;9.944;2023-06-22T04:36:12;20.90;99.90
5457;DHT22;2751;49.802;9.944;2023-06-22T04:38:40;20.90;99.90
5457;DHT22;2751;49.802;9.944;2023-06-22T04:41:07;20.90;99.90
5457;DHT22;2751;49.802;9.944;2023-06-22T04:43:39;21.00;99.90
5457;DHT22;2751;49.802;9.944;2023-06-22T04:46:06;21.00;99.90
5457;DHT22;2751;49.802;9.944;2023-06-22T04:48:33;21.00;99.90
5457;DHT22;2751;49.802;9.944;2023-06-22T04:51:01;21.00;99.90
5457;DHT22;2751;49.802;9.944;2023-06-22T04:53:30;21.10;99.90
5457;DHT22;2751;49.802;9.944;2023-06-22T04:55:57;21.10;99.90
5457;DHT22;2751;49.802;9.944;2023-06-22T04:58:24;21.10;99.90
5457;DHT22;2751;49.802;9.944;2023-06-22T05:00:54;21.20;99.90
5457;DHT22;2751;49.802;9.944;2023-06-22T05:03:24;21.20;99.90
5457;DHT22;2751;49.802;9.944;2023-06-22T05:05:54;21.20;99.90
5457;DHT22;2751;49.802;9.944;2023-06-22T05:08:21;21.30;99.90
5457;DHT22;2751;49.802;9.944;2023-06-22T05:10:55;21.40;99.90
5457;DHT22;2751;49.802;9.944;2023-06-22T05:13:22;21.40;99.90
5457;DHT22;2751;49.802;9.944;2023-06-22T05:15:51;21.50;99.90
5457;DHT22;2751;49.802;9.944;2023-06-22T05:18:26;21.50;99.90
5457;DHT22;2751;49.802;9.944;2023-06-22T05:20:53;21.60;99.90
5457;DHT22;2751;49.802;9.944;2023-06-22T05:23:20;21.30;99.90
5457;DHT22;2751;49.802;9.944;2023-06-22T05:25:47;21.80;99.90
5457;DHT22;2751;49.802;9.944;2023-06-22T05:28:15;21.80;99.90
5457;DHT22;2751;49.802;9.944;2023-06-22T05:30:42;21.90;99.90
5457;DHT22;2751;49.802;9.944;2023-06-22T05:33:10;22.00;99.90
5457;DHT22;2751;49.802;9.944;2023-06-22T05:35:37;22.30;99.90
5457;DHT22;2751;49.802;9.944;2023-06-22T05:38:03;22.50;99.90
5457;DHT22;2751;49.802;9.944;2023-06-22T05:40:30;22.70;99.90
5457;DHT22;2751;49.802;9.944;2023-06-22T05:42:57;22.70;99.90
5457;DHT22;2751;49.802;9.944;2023-06-22T05:45:27;22.80;99.90
5457;DHT22;2751;49.802;9.944;2023-06-22T05:47:54;22.90;99.90
5457;DHT22;2751;49.802;9.944;2023-06-22T05:50:21;23.00;99.90
5457;DHT22;2751;49.802;9.944;2023-06-22T05:52:48;23.00;99.90
5457;DHT22;2751;49.802;9.944;2023-06-22T05:55:15;23.00;99.90
5457;DHT22;2751;49.802;9.944;2023-06-22T05:57:44;23.00;99.90
5457;DHT22;2751;49.802;9.944;2023-06-22T06:00:12;23.10;99.90
5457;DHT22;2751;49.802;9.944;2023-06-22T06:02:41;23.20;99.90
5457;DHT22;2751;49.802;9.944;2023-06-22T06:05:10;23.30;99.90
5457;DHT22;2751;49.802;9.944;2023-06-22T06:07:37;23.30;99.90
5457;DHT22;2751;49.802;9.944;2023-06-22T06:10:04;23.40;99.90
5457;DHT22;2751;49.802;9.944;2023-06-22T06:12:36;23.50;99.90
5457;DHT22;2751;49.802;9.944;2023-06-22T06:15:03;23.60;99.90
5457;DHT22;2751;49.802;9.944;2023-06-22T06:17:31;23.70;99.90
5457;DHT22;2751;49.802;9.944;2023-06-22T06:20:01;23.80;99.90
5457;DHT22;2751;49.802;9.944;2023-06-22T06:22:32;23.90;99.90
5457;DHT22;2751;49.802;9.944;2023-06-22T06:24:59;24.00;99.90
5457;DHT22;2751;49.802;9.944;2023-06-22T06:27:26;24.10;99.90
5457;DHT22;2751;49.802;9.944;2023-06-22T06:29:54;24.20;99.90
5457;DHT22;2751;49.802;9.944;2023-06-22T06:32:21;24.20;99.90
5457;DHT22;2751;49.802;9.944;2023-06-22T06:34:48;24.20;99.90
5457;DHT22;2751;49.802;9.944;2023-06-22T06:37:16;24.20;99.90
5457;DHT22;2751;49.802;9.944;2023-06-22T06:39:44;24.20;99.90
5457;DHT22;2751;49.802;9.944;2023-06-22T06:42:10;24.30;99.90
5457;DHT22;2751;49.802;9.944;2023-06-22T06:44:37;24.30;99.90
5457;DHT22;2751;49.802;9.944;2023-06-22T06:47:04;24.30;99.90
5457;DHT22;2751;49.802;9.944;2023-06-22T06:49:33;24.50;99.90
5457;DHT22;2751;49.802;9.944;2023-06-22T06:52:00;24.50;99.90
5457;DHT22;2751;49.802;9.944;2023-06-22T06:54:28;24.60;99.90
5457;DHT22;2751;49.802;9.944;2023-06-22T06:56:55;24.70;99.90
5457;DHT22;2751;49.802;9.944;2023-06-22T06:59:22;24.80;99.90
5457;DHT22;2751;49.802;9.944;2023-06-22T07:01:49;24.90;99.90
5457;DHT22;2751;49.802;9.944;2023-06-22T07:04:16;24.90;99.90
5457;DHT22;2751;49.802;9.944;2023-06-22T07:06:43;25.10;99.90
5457;DHT22;2751;49.802;9.944;2023-06-22T07:09:09;25.10;99.90
5457;DHT22;2751;49.802;9.944;2023-06-22T07:11:38;25.20;99.90
5457;DHT22;2751;49.802;9.944;2023-06-22T07:14:05;25.30;99.90
5457;DHT22;2751;49.802;9.944;2023-06-22T07:16:31;25.40;99.90
5457;DHT22;2751;49.802;9.944;2023-06-22T07:18:59;25.40;99.90
5457;DHT22;2751;49.802;9.944;2023-06-22T07:21:26;25.40;99.90
5457;DHT22;2751;49.802;9.944;2023-06-22T07:23:53;25.50;99.90
5457;DHT22;2751;49.802;9.944;2023-06-22T07:26:21;25.60;99.90
5457;DHT22;2751;49.802;9.944;2023-06-22T07:28:49;25.70;99.90
5457;DHT22;2751;49.802;9.944;2023-06-22T07:31:16;25.70;99.90
5457;DHT22;2751;49.802;9.944;2023-06-22T07:33:43;25.80;99.90
5457;DHT22;2751;49.802;9.944;2023-06-22T07:36:10;25.90;99.90
5457;DHT22;2751;49.802;9.944;2023-06-22T07:38:37;26.00;99.90
5457;DHT22;2751;49.802;9.944;2023-06-22T07:41:04;26.10;99.90
5457;DHT22;2751;49.802;9.944;2023-06-22T07:43:32;26.30;99.90
5457;DHT22;2751;49.802;9.944;2023-06-22T07:46:01;26.30;99.90
5457;DHT22;2751;49.802;9.944;2023-06-22T07:48:28;26.10;99.90
5457;DHT22;2751;49.802;9.944;2023-06-22T07:50:55;26.20;99.90
5457;DHT22;2751;49.802;9.944;2023-06-22T07:53:22;26.30;99.90
5457;DHT22;2751;49.802;9.944;2023-06-22T07:55:49;26.40;99.90
5457;DHT22;2751;49.802;9.944;2023-06-22T07:58:16;26.50;99.90
5457;DHT22;2751;49.802;9.944;2023-06-22T08:00:44;26.60;99.90
5457;DHT22;2751;49.802;9.944;2023-06-22T08:03:12;26.80;99.90
5457;DHT22;2751;49.802;9.944;2023-06-22T08:05:39;26.90;99.90
5457;DHT22;2751;49.802;9.944;2023-06-22T08:08:06;26.80;99.90
5457;DHT22;2751;49.802;9.944;2023-06-22T08:10:33;26.80;99.90
5457;DHT22;2751;49.802;9.944;2023-06-22T08:13:00;26.80;99.90
5457;DHT22;2751;49.802;9.944;2023-06-22T08:15:27;26.80;99.90
5457;DHT22;2751;49.802;9.944;2023-06-22T08:17:54;26.90;99.90
5457;DHT22;2751;49.802;9.944;2023-06-22T08:20:22;27.10;99.90
5457;DHT22;2751;49.802;9.944;2023-06-22T08:22:49;27.20;99.90
5457;DHT22;2751;49.802;9.944;2023-06-22T08:25:16;27.30;99.90
5457;DHT22;2751;49.802;9.944;2023-06-22T08:27:45;27.40;99.90
5457;DHT22;2751;49.802;9.944;2023-06-22T08:30:13;27.50;99.90
5457;DHT22;2751;49.802;9.944;2023-06-22T08:32:40;27.60;99.90
5457;DHT22;2751;49.802;9.944;2023-06-22T08:35:08;27.70;99.90
5457;DHT22;2751;49.802;9.944;2023-06-22T08:37:36;27.90;99.90
5457;DHT22;2751;49.802;9.944;2023-06-22T08:40:06;27.80;99.90
5457;DHT22;2751;49.802;9.944;2023-06-22T08:42:33;28.10;99.90
5457;DHT22;2751;49.802;9.944;2023-06-22T08:45:00;28.20;99.90
5457;DHT22;2751;49.802;9.944;2023-06-22T08:47:28;28.60;99.90
5457;DHT22;2751;49.802;9.944;2023-06-22T08:49:54;29.40;99.90
5457;DHT22;2751;49.802;9.944;2023-06-22T08:52:22;30.20;99.90
5457;DHT22;2751;49.802;9.944;2023-06-22T08:54:51;30.80;99.90
5457;DHT22;2751;49.802;9.944;2023-06-22T08:57:18;31.40;99.90
5457;DHT22;2751;49.802;9.944;2023-06-22T08:59:44;31.40;99.90
5457;DHT22;2751;49.802;9.944;2023-06-22T09:02:12;32.20;99.90
5457;DHT22;2751;49.802;9.944;2023-06-22T09:04:39;31.70;99.90
5457;DHT22;2751;49.802;9.944;2023-06-22T09:07:06;32.10;99.90
5457;DHT22;2751;49.802;9.944;2023-06-22T09:09:45;32.30;99.90
5457;DHT22;2751;49.802;9.944;2023-06-22T09:12:13;32.70;99.90
5457;DHT22;2751;49.802;9.944;2023-06-22T09:14:40;33.60;99.30
5457;DHT22;2751;49.802;9.944;2023-06-22T09:17:07;34.50;1.00
5457;DHT22;2751;49.802;9.944;2023-06-22T09:19:35;35.20;1.00
5457;DHT22;2751;49.802;9.944;2023-06-22T09:22:02;35.50;1.00
5457;DHT22;2751;49.802;9.944;2023-06-22T09:24:29;35.40;1.00
5457;DHT22;2751;49.802;9.944;2023-06-22T09:26:56;35.60;1.00
5457;DHT22;2751;49.802;9.944;2023-06-22T09:29:25;35.90;1.00
5457;DHT22;2751;49.802;9.944;2023-06-22T09:31:52;36.20;1.00
5457;DHT22;2751;49.802;9.944;2023-06-22T09:34:19;35.60;1.00
5457;DHT22;2751;49.802;9.944;2023-06-22T09:36:46;35.70;1.00
5457;DHT22;2751;49.802;9.944;2023-06-22T09:39:13;36.80;1.00
5457;DHT22;2751;49.802;9.944;2023-06-22T09:41:40;37.50;1.00
5457;DHT22;2751;49.802;9.944;2023-06-22T09:44:07;38.00;1.00
5457;DHT22;2751;49.802;9.944;2023-06-22T09:46:35;38.40;1.00
5457;DHT22;2751;49.802;9.944;2023-06-22T09:49:02;38.60;1.00
5457;DHT22;2751;49.802;9.944;2023-06-22T09:51:29;39.10;1.00
5457;DHT22;2751;49.802;9.944;2023-06-22T09:53:56;38.40;1.00
5457;DHT22;2751;49.802;9.944;2023-06-22T09:56:23;38.60;1.00
5457;DHT22;2751;49.802;9.944;2023-06-22T09:58:52;38.70;1.00
5457;DHT22;2751;49.802;9.944;2023-06-22T10:01:19;40.00;1.00
5457;DHT22;2751;49.802;9.944;2023-06-22T10:03:48;40.00;1.00
5457;DHT22;2751;49.802;9.944;2023-06-22T10:06:15;39.40;1.00
5457;DHT22;2751;49.802;9.944;2023-06-22T10:08:59;39.50;1.00
5457;DHT22;2751;49.802;9.944;2023-06-22T10:11:26;39.60;1.00
5457;DHT22;2751;49.802;9.944;2023-06-22T10:13:55;40.90;1.00
5457;DHT22;2751;49.802;9.944;2023-06-22T10:16:24;39.90;1.00
5457;DHT22;2751;49.802;9.944;2023-06-22T10:18:53;39.40;1.00
5457;DHT22;2751;49.802;9.944;2023-06-22T10:21:20;39.20;1.00
5457;DHT22;2751;49.802;9.944;2023-06-22T10:23:47;39.50;1.00
5457;DHT22;2751;49.802;9.944;2023-06-22T10:26:14;40.90;1.00
5457;DHT22;2751;49.802;9.944;2023-06-22T10:28:41;41.60;1.00
5457;DHT22;2751;49.802;9.944;2023-06-22T10:31:08;41.60;1.00
5457;DHT22;2751;49.802;9.944;2023-06-22T10:33:35;41.60;1.00
5457;DHT22;2751;49.802;9.944;2023-06-22T10:36:03;41.40;1.00
5457;DHT22;2751;49.802;9.944;2023-06-22T10:38:30;40.70;1.00
5457;DHT22;2751;49.802;9.944;2023-06-22T10:40:57;39.20;1.00
5457;DHT22;2751;49.802;9.944;2023-06-22T10:43:24;39.00;1.00
5457;DHT22;2751;49.802;9.944;2023-06-22T10:45:51;38.60;1.00
5457;DHT22;2751;49.802;9.944;2023-06-22T10:48:18;39.50;1.00
5457;DHT22;2751;49.802;9.944;2023-06-22T10:50:46;39.50;1.00
5457;DHT22;2751;49.802;9.944;2023-06-22T10:53:14;39.00;1.00
5457;DHT22;2751;49.802;9.944;2023-06-22T10:55:41;39.40;1.00
5457;DHT22;2751;49.802;9.944;2023-06-22T10:58:08;40.00;1.00
5457;DHT22;2751;49.802;9.944;2023-06-22T11:00:35;40.40;1.00
5457;DHT22;2751;49.802;9.944;2023-06-22T11:03:02;40.20;1.00
5457;DHT22;2751;49.802;9.944;2023-06-22T11:05:29;39.20;1.00
5457;DHT22;2751;49.802;9.944;2023-06-22T11:07:56;38.20;1.00
5457;DHT22;2751;49.802;9.944;2023-06-22T11:10:25;37.70;1.00
5457;DHT22;2751;49.802;9.944;2023-06-22T11:12:52;37.30;1.00
5457;DHT22;2751;49.802;9.944;2023-06-22T11:15:21;37.80;1.00
5457;DHT22;2751;49.802;9.944;2023-06-22T11:17:47;39.20;1.00
5457;DHT22;2751;49.802;9.944;2023-06-22T11:20:14;40.70;1.00
5457;DHT22;2751;49.802;9.944;2023-06-22T11:22:42;39.70;1.00
5457;DHT22;2751;49.802;9.944;2023-06-22T11:25:09;40.40;1.00
5457;DHT22;2751;49.802;9.944;2023-06-22T11:27:38;40.80;1.00
5457;DHT22;2751;49.802;9.944;2023-06-22T11:30:06;41.60;1.00
5457;DHT22;2751;49.802;9.944;2023-06-22T11:32:34;41.70;1.00
5457;DHT22;2751;49.802;9.944;2023-06-22T11:35:00;43.40;1.00
5457;DHT22;2751;49.802;9.944;2023-06-22T11:37:27;42.60;1.00
5457;DHT22;2751;49.802;9.944;2023-06-22T11:39:54;42.30;1.00
5457;DHT22;2751;49.802;9.944;2023-06-22T11:42:21;40.90;1.00
5457;DHT22;2751;49.802;9.944;2023-06-22T11:44:50;41.10;1.00
5457;DHT22;2751;49.802;9.944;2023-06-22T11:47:17;41.00;1.00
5457;DHT22;2751;49.802;9.944;2023-06-22T11:49:44;41.40;1.00
5457;DHT22;2751;49.802;9.944;2023-06-22T11:52:11;42.40;1.00
5457;DHT22;2751;49.802;9.944;2023-06-22T11:54:38;43.40;1.00
5457;DHT22;2751;49.802;9.944;2023-06-22T11:57:05;43.90;1.00
5457;DHT22;2751;49.802;9.944;2023-06-22T11:59:32;43.50;1.00
5457;DHT22;2751;49.802;9.944;2023-06-22T12:02:02;42.60;1.00
5457;DHT22;2751;49.802;9.944;2023-06-22T12:04:31;43.10;1.00
5457;DHT22;2751;49.802;9.944;2023-06-22T12:06:58;43.90;1.00
5457;DHT22;2751;49.802;9.944;2023-06-22T12:09:25;44.50;1.00
5457;DHT22;2751;49.802;9.944;2023-06-22T12:11:52;45.00;1.00
5457;DHT22;2751;49.802;9.944;2023-06-22T12:14:19;43.50;1.00
5457;DHT22;2751;49.802;9.944;2023-06-22T12:16:46;42.50;1.00
5457;DHT22;2751;49.802;9.944;2023-06-22T12:19:14;41.30;1.00
5457;DHT22;2751;49.802;9.944;2023-06-22T12:21:41;40.60;1.00
5457;DHT22;2751;49.802;9.944;2023-06-22T12:24:11;39.50;1.00
5457;DHT22;2751;49.802;9.944;2023-06-22T12:26:37;40.20;1.00
5457;DHT22;2751;49.802;9.944;2023-06-22T12:29:04;41.50;1.00
5457;DHT22;2751;49.802;9.944;2023-06-22T12:31:31;42.60;1.00
5457;DHT22;2751;49.802;9.944;2023-06-22T12:33:58;42.30;1.00
5457;DHT22;2751;49.802;9.944;2023-06-22T12:36:26;40.70;1.00
5457;DHT22;2751;49.802;9.944;2023-06-22T12:38:53;39.40;1.00
5457;DHT22;2751;49.802;9.944;2023-06-22T12:41:20;40.20;1.00
5457;DHT22;2751;49.802;9.944;2023-06-22T12:43:47;41.80;1.00
5457;DHT22;2751;49.802;9.944;2023-06-22T12:46:14;42.20;1.00
5457;DHT22;2751;49.802;9.944;2023-06-22T12:48:41;42.40;1.00
5457;DHT22;2751;49.802;9.944;2023-06-22T12:51:08;41.90;1.00
5457;DHT22;2751;49.802;9.944;2023-06-22T12:53:37;40.70;1.00
5457;DHT22;2751;49.802;9.944;2023-06-22T12:56:04;39.60;1.00
5457;DHT22;2751;49.802;9.944;2023-06-22T12:58:31;38.70;1.00
5457;DHT22;2751;49.802;9.944;2023-06-22T13:00:58;37.50;1.00
5457;DHT22;2751;49.802;9.944;2023-06-22T13:03:25;36.40;1.00
5457;DHT22;2751;49.802;9.944;2023-06-22T13:05:53;36.00;1.00
5457;DHT22;2751;49.802;9.944;2023-06-22T13:08:20;35.90;1.00
5457;DHT22;2751;49.802;9.944;2023-06-22T13:10:48;35.90;1.00
5457;DHT22;2751;49.802;9.944;2023-06-22T13:13:15;35.90;1.00
5457;DHT22;2751;49.802;9.944;2023-06-22T13:15:42;35.70;1.00
5457;DHT22;2751;49.802;9.944;2023-06-22T13:18:09;35.10;1.00
5457;DHT22;2751;49.802;9.944;2023-06-22T13:20:36;35.30;1.00
5457;DHT22;2751;49.802;9.944;2023-06-22T13:23:03;35.10;1.00
5457;DHT22;2751;49.802;9.944;2023-06-22T13:25:30;35.30;1.00
5457;DHT22;2751;49.802;9.944;2023-06-22T13:27:58;35.50;1.00
5457;DHT22;2751;49.802;9.944;2023-06-22T13:30:25;35.20;1.00
5457;DHT22;2751;49.802;9.944;2023-06-22T13:32:52;34.50;1.00
5457;DHT22;2751;49.802;9.944;2023-06-22T13:35:19;34.30;1.00
5457;DHT22;2751;49.802;9.944;2023-06-22T13:37:46;34.30;1.00
5457;DHT22;2751;49.802;9.944;2023-06-22T13:40:13;34.20;1.00
5457;DHT22;2751;49.802;9.944;2023-06-22T13:42:40;34.00;1.00
5457;DHT22;2751;49.802;9.944;2023-06-22T13:45:09;33.90;1.00
5457;DHT22;2751;49.802;9.944;2023-06-22T13:47:36;34.20;1.00
5457;DHT22;2751;49.802;9.944;2023-06-22T13:50:05;34.50;1.00
5457;DHT22;2751;49.802;9.944;2023-06-22T13:52:32;35.10;1.00
5457;DHT22;2751;49.802;9.944;2023-06-22T13:54:59;35.10;1.00
5457;DHT22;2751;49.802;9.944;2023-06-22T13:57:26;35.10;1.00
5457;DHT22;2751;49.802;9.944;2023-06-22T13:59:53;35.10;1.00
5457;DHT22;2751;49.802;9.944;2023-06-22T14:02:21;34.70;1.00
5457;DHT22;2751;49.802;9.944;2023-06-22T14:04:48;34.50;1.00
5457;DHT22;2751;49.802;9.944;2023-06-22T14:07:15;34.50;1.00
5457;DHT22;2751;49.802;9.944;2023-06-22T14:09:42;34.70;1.00
5457;DHT22;2751;49.802;9.944;2023-06-22T14:12:10;34.50;1.00
5457;DHT22;2751;49.802;9.944;2023-06-22T14:14:37;34.60;1.00
5457;DHT22;2751;49.802;9.944;2023-06-22T14:17:04;34.30;1.00
5457;DHT22;2751;49.802;9.944;2023-06-22T14:19:33;34.20;1.00
5457;DHT22;2751;49.802;9.944;2023-06-22T14:22:00;34.40;1.00
5457;DHT22;2751;49.802;9.944;2023-06-22T14:24:27;34.50;1.00
5457;DHT22;2751;49.802;9.944;2023-06-22T14:26:54;35.10;1.00
5457;DHT22;2751;49.802;9.944;2023-06-22T14:29:21;35.90;1.00
5457;DHT22;2751;49.802;9.944;2023-06-22T14:31:48;37.90;1.00
5457;DHT22;2751;49.802;9.944;2023-06-22T14:34:15;38.80;1.00
5457;DHT22;2751;49.802;9.944;2023-06-22T14:36:44;39.00;1.00
5457;DHT22;2751;49.802;9.944;2023-06-22T14:39:11;38.50;1.00
5457;DHT22;2751;49.802;9.944;2023-06-22T14:41:40;38.50;1.00
5457;DHT22;2751;49.802;9.944;2023-06-22T14:44:07;38.30;1.00
5457;DHT22;2751;49.802;9.944;2023-06-22T14:46:35;37.90;1.00
5457;DHT22;2751;49.802;9.944;2023-06-22T14:49:02;37.80;1.00
5457;DHT22;2751;49.802;9.944;2023-06-22T14:51:30;38.10;1.00
5457;DHT22;2751;49.802;9.944;2023-06-22T14:53:58;38.60;1.00
5457;DHT22;2751;49.802;9.944;2023-06-22T14:56:25;38.90;1.00
5457;DHT22;2751;49.802;9.944;2023-06-22T14:58:52;38.90;1.00
5457;DHT22;2751;49.802;9.944;2023-06-22T15:01:19;39.40;1.00
5457;DHT22;2751;49.802;9.944;2023-06-22T15:03:46;39.20;1.00
5457;DHT22;2751;49.802;9.944;2023-06-22T15:06:13;38.50;1.00
5457;DHT22;2751;49.802;9.944;2023-06-22T15:08:41;40.20;1.00
5457;DHT22;2751;49.802;9.944;2023-06-22T15:11:09;42.10;1.00
5457;DHT22;2751;49.802;9.944;2023-06-22T15:13:39;42.70;1.00
5457;DHT22;2751;49.802;9.944;2023-06-22T15:16:06;43.00;1.00
5457;DHT22;2751;49.802;9.944;2023-06-22T15:18:34;43.70;1.00
5457;DHT22;2751;49.802;9.944;2023-06-22T15:21:02;44.50;1.00
5457;DHT22;2751;49.802;9.944;2023-06-22T15:23:32;45.90;1.00
5457;DHT22;2751;49.802;9.944;2023-06-22T15:26:02;46.20;1.00
5457;DHT22;2751;49.802;9.944;2023-06-22T15:28:32;45.50;1.00
5457;DHT22;2751;49.802;9.944;2023-06-22T15:31:00;43.90;1.00
5457;DHT22;2751;49.802;9.944;2023-06-22T15:33:27;42.80;1.00
5457;DHT22;2751;49.802;9.944;2023-06-22T15:35:54;41.40;1.00
5457;DHT22;2751;49.802;9.944;2023-06-22T15:38:21;40.40;1.00
5457;DHT22;2751;49.802;9.944;2023-06-22T15:40:48;40.10;1.00
5457;DHT22;2751;49.802;9.944;2023-06-22T15:43:15;40.10;1.00
5457;DHT22;2751;49.802;9.944;2023-06-22T15:45:44;40.40;1.00
5457;DHT22;2751;49.802;9.944;2023-06-22T15:48:11;40.00;1.00
5457;DHT22;2751;49.802;9.944;2023-06-22T15:50:38;40.00;1.00
5457;DHT22;2751;49.802;9.944;2023-06-22T15:53:05;39.90;1.00
5457;DHT22;2751;49.802;9.944;2023-06-22T15:55:32;38.80;1.00
5457;DHT22;2751;49.802;9.944;2023-06-22T15:58:00;37.90;1.00
5457;DHT22;2751;49.802;9.944;2023-06-22T16:00:27;36.80;1.00
5457;DHT22;2751;49.802;9.944;2023-06-22T16:02:55;36.10;1.00
5457;DHT22;2751;49.802;9.944;2023-06-22T16:05:22;35.70;1.00
5457;DHT22;2751;49.802;9.944;2023-06-22T16:07:49;35.30;1.00
5457;DHT22;2751;49.802;9.944;2023-06-22T16:10:16;34.90;1.00
5457;DHT22;2751;49.802;9.944;2023-06-22T16:12:43;34.80;1.00